Stations météo

réclame
Mon MeteoGroup
London/Gatwick, Grande-Bretagne (3776): Température de l'air & dewpoint: 15.06.2018 18:00:00 - 21.06.2018 18:00:00 (BST)London/Gatwick, Grande-Bretagne (3776): Vitesse du vent: 15.06.2018 18:00:00 - 21.06.2018 18:00:00 (BST)London/Gatwick, Grande-Bretagne (3776): Direction du vent: 15.06.2018 18:00:00 - 21.06.2018 18:00:00 (BST)London/Gatwick, Grande-Bretagne (3776): visibility: 15.06.2018 18:00:00 - 21.06.2018 18:00:00 (BST)
Date & Time tt [°C] td [°C] ff [km/h] ff [knt] dd vv [km]
21.06.2018 18:00:00 20,0 3,0 22 12 NNW 10
21.06.2018 17:00:00 19,0 3,0 15 8 NNE 10
21.06.2018 16:00:00 20,0 3,0 18 10 NNW 10
21.06.2018 15:00:00 20,0 4,0 24 13 NNW 10
21.06.2018 14:00:00 19,0 4,0 24 13 NNW 10
21.06.2018 13:00:00 18,0 4,0 24 13 NW 10
21.06.2018 12:00:00 18,0 5,0 28 15 NNW 10
21.06.2018 11:00:00 16,0 4,0 24 13 NNW 10
21.06.2018 10:00:00 15,0 5,0 22 12 NNW 10
21.06.2018 09:00:00 14,0 5,0 21 11 N 10
21.06.2018 08:00:00 13,0 6,0 21 11 NNW 10
21.06.2018 07:00:00 13,0 6,0 22 12 NNW 10
21.06.2018 06:00:00 12,0 6,0 18 10 NNW 10
21.06.2018 05:00:00 12,0 6,0 15 8 NNW 10
21.06.2018 04:00:00 13,0 6,0 18 10 NNW 10
21.06.2018 03:00:00 14,0 5,0 22 12 NNW 10
21.06.2018 02:00:00 15,0 8,0 18 10 NNW 10
21.06.2018 01:00:00 16,0 9,0 21 11 NW 10
21.06.2018 00:00:00 17,0 14,0 16 9 WNW 10
20.06.2018 23:00:00 17,0 15,0 11 6 W 10
20.06.2018 22:00:00 19,0 15,0 13 7 W 10
20.06.2018 21:00:00 20,0 16,0 11 6 WSW 10
20.06.2018 20:00:00 - - - - - -
20.06.2018 19:00:00 22,0 17,0 18 10 SW 10
20.06.2018 18:00:00 23,0 17,0 16 9 SW 10
20.06.2018 17:00:00 24,0 17,0 13 7 SW 10
20.06.2018 16:00:00 23,0 16,0 18 10 SW 10
20.06.2018 15:00:00 22,0 16,0 18 10 SW 10
20.06.2018 14:00:00 20,0 16,0 15 8 SW 10
20.06.2018 13:00:00 19,0 16,0 13 7 SW 10
20.06.2018 12:00:00 18,0 15,0 15 8 SW 10
20.06.2018 11:00:00 17,0 15,0 13 7 SSW 10
20.06.2018 10:00:00 16,0 14,0 15 8 SSW 10
20.06.2018 09:00:00 15,0 14,0 15 8 SW 10
20.06.2018 08:00:00 16,0 15,0 13 7 SW 10
20.06.2018 07:00:00 15,0 15,0 11 6 SW 6
20.06.2018 06:00:00 15,0 15,0 11 6 SSW 2,1
20.06.2018 05:00:00 15,0 15,0 9 5 SSW 1,1
20.06.2018 04:00:00 15,0 15,0 9 5 SSW 0,9
20.06.2018 03:00:00 15,0 15,0 8 4 S 2,3
20.06.2018 02:00:00 15,0 14,0 8 4 S 7
20.06.2018 01:00:00 15,0 14,0 4 2 - 10
20.06.2018 00:00:00 16,0 15,0 8 4 SSW 10
19.06.2018 23:00:00 17,0 15,0 9 5 SSW 10
19.06.2018 22:00:00 18,0 15,0 8 4 SW 10
19.06.2018 21:00:00 19,0 16,0 11 6 SSW 10
19.06.2018 20:00:00 21,0 16,0 15 8 SSW 10
19.06.2018 19:00:00 21,0 16,0 16 9 SW 10
19.06.2018 18:00:00 23,0 17,0 16 9 SW 10
19.06.2018 17:00:00 22,0 16,0 15 8 SW 10
19.06.2018 16:00:00 22,0 17,0 16 9 SSW 10
19.06.2018 15:00:00 23,0 17,0 11 6 WSW 10
19.06.2018 14:00:00 22,0 16,0 16 9 SW 10
19.06.2018 13:00:00 21,0 16,0 15 8 W 10
19.06.2018 12:00:00 - - - - - -
19.06.2018 11:00:00 19,0 16,0 13 7 WSW 10
19.06.2018 10:00:00 20,0 16,0 13 7 SW 10
19.06.2018 09:00:00 18,0 15,0 16 9 WSW 10
19.06.2018 08:00:00 18,0 15,0 18 10 W 10
19.06.2018 07:00:00 17,0 16,0 9 5 WSW 10
19.06.2018 06:00:00 17,0 16,0 8 4 SW 10
19.06.2018 05:00:00 17,0 16,0 9 5 SW 10
19.06.2018 04:00:00 17,0 16,0 9 5 SW 10
19.06.2018 03:00:00 17,0 16,0 11 6 SW 10
19.06.2018 02:00:00 17,0 16,0 15 8 WSW 10
19.06.2018 01:00:00 17,0 16,0 16 9 WSW 10
19.06.2018 00:00:00 17,0 16,0 15 8 WSW 10
18.06.2018 23:00:00 17,0 15,0 11 6 SW 10
18.06.2018 22:00:00 17,0 15,0 16 9 SW 10
18.06.2018 21:00:00 18,0 15,0 15 8 SW 10
18.06.2018 20:00:00 19,0 14,0 16 9 WSW 10
18.06.2018 19:00:00 21,0 14,0 22 12 SW 10
18.06.2018 18:00:00 22,0 14,0 21 11 SW 10
18.06.2018 17:00:00 22,0 14,0 24 13 SW 10
18.06.2018 16:00:00 23,0 14,0 18 10 SSW 10
18.06.2018 15:00:00 23,0 12,0 18 10 WSW 10
18.06.2018 14:00:00 22,0 11,0 21 11 WSW 10
18.06.2018 13:00:00 21,0 12,0 18 10 WSW 10
18.06.2018 12:00:00 20,0 12,0 24 13 W 10
18.06.2018 11:00:00 18,0 12,0 21 11 WSW 10
18.06.2018 10:00:00 16,0 13,0 18 10 W 10
18.06.2018 09:00:00 15,0 13,0 16 9 WSW 10
18.06.2018 08:00:00 15,0 13,0 15 8 WSW 10
18.06.2018 07:00:00 15,0 14,0 15 8 W 10
18.06.2018 06:00:00 15,0 15,0 11 6 WSW 10
18.06.2018 05:00:00 15,0 15,0 9 5 SW 4,5
18.06.2018 04:00:00 15,0 15,0 13 7 SW 2,5
18.06.2018 03:00:00 15,0 15,0 11 6 SW 3,5
18.06.2018 02:00:00 15,0 15,0 13 7 SW 3,5
18.06.2018 01:00:00 15,0 15,0 15 8 SSW 4,0
18.06.2018 00:00:00 15,0 15,0 15 8 SSW 2,0
17.06.2018 23:00:00 15,0 15,0 13 7 S 2,0
17.06.2018 22:00:00 15,0 14,0 15 8 SSW 10
17.06.2018 21:00:00 15,0 14,0 13 7 SSW 7
17.06.2018 20:00:00 14,0 14,0 16 9 SW 8
17.06.2018 19:00:00 15,0 13,0 21 11 SW 8
17.06.2018 18:00:00 15,0 12,0 21 11 SSW 10
17.06.2018 17:00:00 16,0 12,0 18 10 SW 10
17.06.2018 16:00:00 17,0 11,0 21 11 SW 10
17.06.2018 15:00:00 17,0 11,0 21 11 SW 10
17.06.2018 14:00:00 17,0 11,0 26 14 SW 10
17.06.2018 13:00:00 17,0 11,0 18 10 SW 10
17.06.2018 12:00:00 18,0 9,0 18 10 SW 10
17.06.2018 11:00:00 17,0 10,0 16 9 W 10
17.06.2018 10:00:00 16,0 11,0 18 10 WSW 10
17.06.2018 09:00:00 14,0 11,0 15 8 WSW 10
17.06.2018 08:00:00 13,0 11,0 13 7 WSW 10
17.06.2018 07:00:00 13,0 10,0 13 7 WSW 10
17.06.2018 06:00:00 13,0 9,0 9 5 SW 10
17.06.2018 05:00:00 - - - - - -
17.06.2018 04:00:00 13,0 9,0 13 7 SW 10
17.06.2018 03:00:00 13,0 9,0 13 7 SW 10
17.06.2018 02:00:00 14,0 9,0 13 7 WSW 10
17.06.2018 01:00:00 14,0 9,0 11 6 WSW 10
17.06.2018 00:00:00 13,0 9,0 13 7 WSW 10
16.06.2018 23:00:00 15,0 9,0 15 8 W 10
16.06.2018 22:00:00 15,0 11,0 16 9 WSW 10
16.06.2018 21:00:00 15,0 13,0 16 9 SSW 10
16.06.2018 20:00:00 16,0 13,0 18 10 SSW 10
16.06.2018 19:00:00 17,0 12,0 16 9 SSW 10
16.06.2018 18:00:00 16,0 12,0 22 12 SW 10
16.06.2018 17:00:00 16,0 13,0 22 12 SSW 10
16.06.2018 16:00:00 17,0 12,0 21 11 SW 10
16.06.2018 15:00:00 16,0 11,0 18 10 SW 10
16.06.2018 14:00:00 18,0 10,0 22 12 SW 10
16.06.2018 13:00:00 17,0 11,0 21 11 SSW 10
16.06.2018 12:00:00 17,0 11,0 18 10 SW 10
16.06.2018 11:00:00 17,0 10,0 21 11 SW 10
16.06.2018 10:00:00 16,0 10,0 15 8 SW 10
16.06.2018 09:00:00 16,0 12,0 13 7 SW 10
16.06.2018 08:00:00 15,0 12,0 13 7 SW 10
16.06.2018 07:00:00 14,0 12,0 9 5 SW 10
16.06.2018 06:00:00 14,0 12,0 5 3 SSW 10
16.06.2018 05:00:00 13,0 11,0 5 3 S 10
16.06.2018 04:00:00 13,0 10,0 5 3 WSW 10
16.06.2018 03:00:00 - - - - - -
16.06.2018 02:00:00 14,0 10,0 8 4 SW 10
16.06.2018 01:00:00 14,0 11,0 8 4 SW 10
16.06.2018 00:00:00 15,0 11,0 8 4 SW 10
15.06.2018 23:00:00 15,0 12,0 8 4 SW 10
15.06.2018 22:00:00 16,0 11,0 9 5 SW 10
15.06.2018 21:00:00 17,0 11,0 13 7 SW 10
15.06.2018 20:00:00 18,0 11,0 16 9 WSW 10
15.06.2018 19:00:00 19,0 11,0 16 9 SW 10
15.06.2018 18:00:00 21,0 11,0 15 8 SW 10

tt = Température de l'air
td = dewpoint
ff = Vitesse du vent
dd = Direction du vent
vv = visibility

stations d'obs. à proximité